Time;durP1;ratioP1;P1;durP2;ratioP2;P2;SDS_P1;SDS_P2;PMS_P1;PMS_P2;Temp;Humidity;BMP_temperature;BMP_pressure;BME280_temperature;BME280_humidity;BME280_pressure;Samples;Min_cycle;Max_cycle;Signal;HPM_P1;HPM_P2
2022/06/28 00:02:13;;;;;;;17.13;11.27;;;;;;;;;;5030499;28;20041;-68
2022/06/28 00:04:38;;;;;;;16.98;10.55;;;;;;;;;;5026603;28;20257;-66
2022/06/28 00:07:04;;;;;;;16.67;11.05;;;;;;;;;;5012193;28;20025;-68
2022/06/28 00:09:29;;;;;;;15.00;10.50;;;;;;;;;;5030603;28;20048;-68
2022/06/28 00:11:55;;;;;;;18.17;11.05;;;;;;;;;;5031618;28;20532;-68
2022/06/28 00:17:04;;;;;;;18.60;10.45;;;;;;;;;;5028711;28;20087;-68
2022/06/28 00:19:30;;;;;;;17.23;10.85;;;;;;;;;;5030423;28;20033;-69
2022/06/28 00:21:55;;;;;;;16.38;10.75;;;;;;;;;;5031717;28;20087;-69
2022/06/28 00:24:22;;;;;;;19.52;11.27;;;;;;;;;;5030372;28;20117;-69
2022/06/28 00:26:48;;;;;;;15.85;10.18;;;;;;;;;;5031339;28;20071;-69
2022/06/28 00:29:14;;;;;;;16.52;10.88;;;;;;;;;;5019804;28;20095;-69
2022/06/28 00:31:40;;;;;;;18.02;12.10;;;;;;;;;;5013182;28;20033;-67
2022/06/28 00:34:05;;;;;;;16.20;11.02;;;;;;;;;;5030545;28;20033;-69
2022/06/28 00:36:32;;;;;;;18.08;11.25;;;;;;;;;;5030334;28;20055;-69
2022/06/28 00:39:15;;;;;;;13.93;9.75;;;;;;;;;;5028561;28;20033;-69
2022/06/28 00:41:41;;;;;;;16.65;10.27;;;;;;;;;;5019983;28;20060;-67
2022/06/28 00:44:07;;;;;;;15.10;9.88;;;;;;;;;;5022378;28;20037;-69
2022/06/28 00:46:33;;;;;;;15.48;9.63;;;;;;;;;;5031783;28;20096;-69
2022/06/28 00:49:00;;;;;;;16.48;11.20;;;;;;;;;;5027399;28;20041;-69
2022/06/28 00:51:26;;;;;;;15.50;10.57;;;;;;;;;;5026825;28;20037;-69
2022/06/28 00:53:52;;;;;;;17.40;10.57;;;;;;;;;;5023303;28;20509;-67
2022/06/28 00:56:17;;;;;;;16.65;10.82;;;;;;;;;;5028827;28;20037;-69
2022/06/28 00:58:42;;;;;;;14.80;10.73;;;;;;;;;;5029480;28;20040;-67
2022/06/28 01:01:11;;;;;;;19.70;11.20;;;;;;;;;;5030658;28;20048;-69
2022/06/28 01:03:37;;;;;;;20.23;13.38;;;;;;;;;;5030114;28;20037;-69
2022/06/28 01:06:02;;;;;;;22.73;12.23;;;;;;;;;;5026573;28;20026;-69
2022/06/28 01:08:28;;;;;;;19.20;11.30;;;;;;;;;;5029796;28;20037;-69
2022/06/28 01:10:53;;;;;;;19.55;13.73;;;;;;;;;;5030143;28;20112;-69
2022/06/28 01:13:19;;;;;;;20.38;12.98;;;;;;;;;;5028119;28;20497;-69
2022/06/28 01:15:44;;;;;;;21.50;12.80;;;;;;;;;;5028400;28;20022;-67
2022/06/28 01:18:12;;;;;;;17.83;11.48;;;;;;;;;;5029540;28;20172;-69
2022/06/28 01:20:41;;;;;;;17.25;10.50;;;;;;;;;;5030719;28;20120;-69
2022/06/28 01:23:07;;;;;;;13.40;10.45;;;;;;;;;;5018219;28;20102;-69
2022/06/28 01:25:32;;;;;;;13.98;9.85;;;;;;;;;;5027644;28;20064;-69
2022/06/28 01:27:58;;;;;;;17.25;11.05;;;;;;;;;;5030558;28;20470;-69
2022/06/28 01:30:26;;;;;;;19.17;12.07;;;;;;;;;;5029900;28;20158;-69
2022/06/28 01:32:52;;;;;;;17.98;11.27;;;;;;;;;;5028441;28;20044;-68
2022/06/28 01:35:17;;;;;;;18.85;12.02;;;;;;;;;;5018000;28;20039;-68
2022/06/28 01:37:43;;;;;;;16.65;10.95;;;;;;;;;;5031231;28;20112;-67
2022/06/28 01:40:08;;;;;;;14.15;10.32;;;;;;;;;;5029235;28;20418;-67
2022/06/28 01:42:35;;;;;;;16.75;10.45;;;;;;;;;;5012758;28;20034;-69
2022/06/28 01:45:00;;;;;;;14.25;10.05;;;;;;;;;;5011637;28;20022;-69
2022/06/28 01:47:28;;;;;;;15.05;10.82;;;;;;;;;;5013215;28;20032;-69
2022/06/28 01:49:54;;;;;;;16.40;11.23;;;;;;;;;;5025875;28;20033;-69
2022/06/28 01:52:21;;;;;;;18.70;11.43;;;;;;;;;;5031289;28;20099;-68
2022/06/28 01:54:47;;;;;;;17.95;11.15;;;;;;;;;;5018606;28;20467;-66
2022/06/28 01:57:14;;;;;;;16.88;10.88;;;;;;;;;;5028246;28;20033;-69
2022/06/28 01:59:40;;;;;;;16.45;10.70;;;;;;;;;;5027493;28;20056;-69
2022/06/28 02:02:06;;;;;;;14.45;10.30;;;;;;;;;;5027618;28;20074;-69
2022/06/28 02:04:32;;;;;;;14.93;10.98;;;;;;;;;;5029199;28;20034;-69
2022/06/28 02:06:58;;;;;;;16.77;10.30;;;;;;;;;;5026513;28;20138;-68
2022/06/28 02:09:24;;;;;;;15.50;10.35;;;;;;;;;;5024186;28;20042;-68
2022/06/28 02:11:52;;;;;;;15.70;10.27;;;;;;;;;;5010744;28;20026;-69
2022/06/28 02:14:17;;;;;;;17.40;11.20;;;;;;;;;;5023112;28;20051;-69
2022/06/28 02:16:43;;;;;;;18.58;11.40;;;;;;;;;;5030601;28;20389;-69
2022/06/28 02:19:09;;;;;;;17.63;11.63;;;;;;;;;;5026536;28;20045;-69
2022/06/28 02:21:36;;;;;;;19.48;11.73;;;;;;;;;;5030227;28;20029;-69
2022/06/28 02:24:02;;;;;;;16.98;10.52;;;;;;;;;;5026509;28;20462;-69
2022/06/28 02:26:27;;;;;;;16.85;10.90;;;;;;;;;;5019821;28;20483;-69
2022/06/28 02:28:53;;;;;;;16.35;10.40;;;;;;;;;;5019451;28;20029;-68
2022/06/28 02:31:18;;;;;;;13.95;10.18;;;;;;;;;;5034574;28;20033;-69
2022/06/28 02:33:43;;;;;;;17.90;11.05;;;;;;;;;;5015836;28;20036;-69
2022/06/28 02:41:40;;;;;;;15.57;10.00;;;;;;;;;;5032293;28;20045;-69
2022/06/28 02:44:05;;;;;;;14.23;10.70;;;;;;;;;;5024900;28;20808;-69
2022/06/28 02:46:31;;;;;;;14.75;10.60;;;;;;;;;;5033850;28;20033;-69
2022/06/28 02:48:57;;;;;;;16.50;11.05;;;;;;;;;;5030660;28;20036;-68
2022/06/28 02:51:22;;;;;;;16.85;11.60;;;;;;;;;;5034227;28;20035;-69
2022/06/28 02:53:48;;;;;;;18.10;11.35;;;;;;;;;;5032695;28;20062;-66
2022/06/28 02:56:14;;;;;;;19.50;10.93;;;;;;;;;;5029727;28;20053;-69
2022/06/28 02:58:39;;;;;;;17.98;11.55;;;;;;;;;;5026891;28;20021;-69
2022/06/28 03:01:04;;;;;;;16.70;10.35;;;;;;;;;;5012366;28;20096;-69
2022/06/28 03:03:30;;;;;;;12.50;9.52;;;;;;;;;;5030661;28;20041;-69
2022/06/28 03:05:56;;;;;;;19.55;10.90;;;;;;;;;;5031840;28;20029;-69
2022/06/28 03:08:21;;;;;;;16.50;10.48;;;;;;;;;;5032085;28;20061;-69
2022/06/28 03:10:47;;;;;;;19.23;10.82;;;;;;;;;;5016213;28;20049;-69
2022/06/28 03:13:12;;;;;;;17.38;10.45;;;;;;;;;;5032624;28;20064;-69
2022/06/28 03:15:38;;;;;;;18.38;10.60;;;;;;;;;;5032456;28;20042;-69
2022/06/28 03:18:03;;;;;;;15.63;10.43;;;;;;;;;;5030489;28;20033;-69
2022/06/28 03:20:29;;;;;;;12.80;9.65;;;;;;;;;;5014676;28;20037;-69
2022/06/28 03:22:55;;;;;;;16.30;10.60;;;;;;;;;;5032836;28;20029;-68
2022/06/28 03:25:24;;;;;;;14.43;10.30;;;;;;;;;;5029925;28;20028;-68
2022/06/28 03:27:49;;;;;;;15.10;10.07;;;;;;;;;;5027058;28;20038;-66
2022/06/28 03:30:15;;;;;;;14.00;9.93;;;;;;;;;;5016709;28;20040;-69
2022/06/28 03:32:41;;;;;;;16.25;10.38;;;;;;;;;;5031611;28;20060;-66
2022/06/28 03:35:07;;;;;;;19.20;11.45;;;;;;;;;;5031344;28;20060;-69
2022/06/28 03:37:33;;;;;;;17.67;10.93;;;;;;;;;;5033059;28;20026;-69
2022/06/28 03:39:59;;;;;;;17.13;10.30;;;;;;;;;;5030577;28;20046;-69
2022/06/28 03:42:25;;;;;;;17.10;11.05;;;;;;;;;;5033325;28;20116;-69
2022/06/28 03:44:50;;;;;;;17.23;11.70;;;;;;;;;;5014772;28;20395;-67
2022/06/28 03:47:16;;;;;;;19.88;11.40;;;;;;;;;;5013566;28;20112;-69
2022/06/28 03:49:41;;;;;;;16.25;10.85;;;;;;;;;;5026255;28;20037;-69
2022/06/28 03:52:07;;;;;;;20.15;11.30;;;;;;;;;;5032487;28;20030;-69
2022/06/28 03:54:33;;;;;;;17.80;10.95;;;;;;;;;;5027806;28;20076;-69
2022/06/28 03:56:58;;;;;;;16.05;11.38;;;;;;;;;;5030961;28;20390;-69
2022/06/28 03:59:23;;;;;;;16.58;11.20;;;;;;;;;;5030525;28;20044;-69
2022/06/28 04:01:49;;;;;;;17.35;12.13;;;;;;;;;;5028956;28;20428;-68
2022/06/28 04:04:14;;;;;;;18.02;12.02;;;;;;;;;;5030767;28;20029;-69
2022/06/28 04:06:40;;;;;;;18.08;12.07;;;;;;;;;;5028635;28;20030;-70
2022/06/28 04:09:18;;;;;;;20.45;12.35;;;;;;;;;;5014659;28;20026;-69
2022/06/28 04:11:44;;;;;;;19.65;12.90;;;;;;;;;;5028586;28;20112;-70
2022/06/28 04:14:13;;;;;;;19.10;12.35;;;;;;;;;;5031623;28;20112;-70
2022/06/28 04:16:41;;;;;;;17.92;12.25;;;;;;;;;;5029996;28;20440;-69
2022/06/28 04:19:18;;;;;;;18.67;13.27;;;;;;;;;;5026725;28;20037;-68
2022/06/28 04:22:03;;;;;;;19.67;12.88;;;;;;;;;;5029066;28;20022;-68
2022/06/28 04:24:28;;;;;;;20.70;12.95;;;;;;;;;;5031910;28;20537;-69
2022/06/28 04:26:54;;;;;;;18.58;12.05;;;;;;;;;;5030921;28;20125;-66
2022/06/28 04:29:19;;;;;;;16.10;11.80;;;;;;;;;;5032229;28;20048;-68
2022/06/28 04:31:50;;;;;;;16.63;11.32;;;;;;;;;;5022035;28;20031;-67
2022/06/28 04:34:16;;;;;;;18.85;12.60;;;;;;;;;;5011603;28;20084;-68
2022/06/28 04:36:47;;;;;;;18.80;12.15;;;;;;;;;;5026110;28;20026;-68
2022/06/28 04:39:13;;;;;;;16.25;11.50;;;;;;;;;;5031144;28;20064;-69
2022/06/28 04:41:38;;;;;;;19.25;11.93;;;;;;;;;;5025144;28;20065;-67
2022/06/28 04:44:03;;;;;;;15.57;11.70;;;;;;;;;;5031566;28;20029;-67
2022/06/28 04:46:29;;;;;;;19.08;11.52;;;;;;;;;;5011877;28;20466;-68
2022/06/28 04:48:54;;;;;;;18.73;11.43;;;;;;;;;;5027452;28;20036;-66
2022/06/28 04:51:20;;;;;;;19.23;12.18;;;;;;;;;;5028019;28;20029;-67
2022/06/28 04:53:47;;;;;;;17.35;11.95;;;;;;;;;;5029030;28;20037;-68
2022/06/28 04:56:13;;;;;;;17.85;12.23;;;;;;;;;;5030734;28;20433;-68
2022/06/28 04:58:38;;;;;;;18.77;12.52;;;;;;;;;;5013219;28;20527;-68
2022/06/28 05:01:04;;;;;;;16.77;12.00;;;;;;;;;;5031192;28;20052;-68
2022/06/28 05:03:30;;;;;;;17.98;12.57;;;;;;;;;;5030927;28;20033;-68
2022/06/28 05:05:56;;;;;;;19.52;11.98;;;;;;;;;;5031714;28;20029;-66
2022/06/28 05:08:21;;;;;;;17.48;12.40;;;;;;;;;;5029530;28;20070;-68
2022/06/28 05:10:47;;;;;;;19.58;12.15;;;;;;;;;;5031904;28;20073;-68
2022/06/28 05:13:12;;;;;;;19.17;11.38;;;;;;;;;;5020262;28;20030;-68
2022/06/28 05:15:38;;;;;;;18.73;12.57;;;;;;;;;;5031848;28;20033;-69
2022/06/28 05:18:03;;;;;;;23.15;12.75;;;;;;;;;;5011470;28;20030;-68
2022/06/28 05:20:37;;;;;;;16.45;11.63;;;;;;;;;;5017614;28;21821;-69
2022/06/28 05:23:05;;;;;;;17.48;10.90;;;;;;;;;;5029100;28;20025;-68
2022/06/28 05:25:30;;;;;;;22.20;11.30;;;;;;;;;;5024787;28;20390;-66
2022/06/28 05:27:56;;;;;;;15.55;10.25;;;;;;;;;;5016376;28;20036;-58
2022/06/28 05:30:21;;;;;;;15.73;8.90;;;;;;;;;;5021506;28;20040;-57
2022/06/28 05:32:47;;;;;;;14.32;8.75;;;;;;;;;;5021990;28;20035;-54
2022/06/28 05:35:12;;;;;;;14.45;8.57;;;;;;;;;;5010763;28;20376;-58
2022/06/28 05:37:37;;;;;;;13.50;8.48;;;;;;;;;;5011492;28;20033;-57
2022/06/28 05:40:03;;;;;;;11.27;7.90;;;;;;;;;;5015995;28;20100;-55
2022/06/28 05:42:28;;;;;;;11.82;7.97;;;;;;;;;;5022634;28;20473;-57
2022/06/28 05:44:54;;;;;;;9.98;6.50;;;;;;;;;;5027505;28;20389;-58
2022/06/28 05:47:19;;;;;;;13.13;6.45;;;;;;;;;;5030288;28;20037;-57
2022/06/28 05:49:45;;;;;;;14.68;6.10;;;;;;;;;;5029435;28;20091;-57
2022/06/28 05:52:10;;;;;;;13.80;6.57;;;;;;;;;;5030680;28;20041;-57
2022/06/28 05:54:35;;;;;;;11.50;6.60;;;;;;;;;;5030324;28;20050;-58
2022/06/28 05:57:01;;;;;;;9.68;5.72;;;;;;;;;;5030613;28;20374;-57
2022/06/28 05:59:27;;;;;;;11.15;5.88;;;;;;;;;;5031544;28;20493;-53
2022/06/28 06:01:55;;;;;;;10.35;5.50;;;;;;;;;;5023818;28;20026;-56
2022/06/28 06:04:21;;;;;;;9.07;5.43;;;;;;;;;;5029915;28;20037;-56
2022/06/28 06:06:47;;;;;;;11.50;5.90;;;;;;;;;;5030794;28;20033;-56
2022/06/28 06:09:12;;;;;;;10.63;5.30;;;;;;;;;;5018949;28;20033;-54
2022/06/28 06:11:38;;;;;;;10.27;5.55;;;;;;;;;;5034238;28;20037;-59
2022/06/28 06:14:03;;;;;;;8.95;5.03;;;;;;;;;;5034000;28;20025;-55
2022/06/28 06:16:29;;;;;;;8.80;4.88;;;;;;;;;;5032636;28;20527;-59
2022/06/28 06:18:54;;;;;;;10.52;4.90;;;;;;;;;;5032207;28;20025;-57
2022/06/28 06:21:20;;;;;;;11.00;4.78;;;;;;;;;;5013542;28;20394;-55
2022/06/28 06:23:45;;;;;;;9.13;4.78;;;;;;;;;;5032536;28;20045;-58
2022/06/28 06:26:11;;;;;;;9.05;5.10;;;;;;;;;;5029685;28;20034;-58
2022/06/28 06:28:36;;;;;;;7.53;4.57;;;;;;;;;;5012185;28;20080;-55
2022/06/28 06:31:03;;;;;;;10.10;5.10;;;;;;;;;;5018048;28;20092;-57
2022/06/28 06:33:28;;;;;;;8.30;5.20;;;;;;;;;;5020348;28;20087;-58
2022/06/28 06:35:53;;;;;;;15.18;5.90;;;;;;;;;;5026773;28;20393;-56
2022/06/28 06:38:19;;;;;;;12.80;6.30;;;;;;;;;;5014683;28;20152;-56
2022/06/28 06:40:44;;;;;;;10.95;5.82;;;;;;;;;;5022041;28;20470;-53
2022/06/28 06:43:10;;;;;;;8.10;5.60;;;;;;;;;;5031519;28;20041;-59
2022/06/28 06:45:35;;;;;;;10.63;5.82;;;;;;;;;;5022108;28;20526;-52
2022/06/28 06:48:01;;;;;;;9.80;5.55;;;;;;;;;;5024647;28;20036;-60
2022/06/28 06:50:26;;;;;;;11.85;5.70;;;;;;;;;;5031820;28;20504;-56
2022/06/28 06:52:51;;;;;;;10.45;6.00;;;;;;;;;;5032380;28;20045;-56
2022/06/28 06:55:17;;;;;;;10.85;5.43;;;;;;;;;;5025465;28;20079;-59
2022/06/28 06:57:43;;;;;;;10.23;5.50;;;;;;;;;;5033742;28;20386;-59
2022/06/28 07:00:09;;;;;;;8.30;5.57;;;;;;;;;;5030206;28;20061;-57
2022/06/28 07:02:40;;;;;;;9.35;5.40;;;;;;;;;;5033616;28;20116;-59
2022/06/28 07:05:06;;;;;;;9.57;5.18;;;;;;;;;;5026878;28;20545;-60
2022/06/28 07:07:31;;;;;;;8.85;5.18;;;;;;;;;;5029572;28;20112;-59
2022/06/28 07:09:58;;;;;;;9.57;4.90;;;;;;;;;;5032670;28;20029;-59
2022/06/28 07:12:23;;;;;;;10.60;4.93;;;;;;;;;;5014860;28;20385;-58
2022/06/28 07:14:49;;;;;;;9.68;5.10;;;;;;;;;;5023164;28;20033;-60
2022/06/28 07:17:14;;;;;;;8.15;4.50;;;;;;;;;;5020806;28;20030;-61
2022/06/28 07:19:40;;;;;;;10.65;4.47;;;;;;;;;;5029163;28;20068;-58
2022/06/28 07:22:05;;;;;;;10.35;4.63;;;;;;;;;;5031079;28;20466;-59
2022/06/28 07:24:30;;;;;;;7.35;4.43;;;;;;;;;;4999633;28;20026;-57
2022/06/28 07:26:56;;;;;;;7.75;3.47;;;;;;;;;;5031540;28;20025;-60
2022/06/28 07:29:21;;;;;;;12.02;3.33;;;;;;;;;;5015780;28;20033;-59
2022/06/28 07:31:48;;;;;;;6.97;2.78;;;;;;;;;;5032792;28;20033;-60
2022/06/28 07:34:13;;;;;;;6.82;2.70;;;;;;;;;;5022602;28;20030;-59
2022/06/28 07:36:40;;;;;;;8.15;2.40;;;;;;;;;;5025653;28;20659;-59
2022/06/28 07:39:06;;;;;;;5.57;2.63;;;;;;;;;;5030760;28;20095;-59
2022/06/28 07:41:31;;;;;;;7.40;2.63;;;;;;;;;;5033109;28;20030;-57
2022/06/28 07:43:56;;;;;;;4.10;2.30;;;;;;;;;;5031195;28;20534;-61
2022/06/28 07:46:25;;;;;;;7.53;2.80;;;;;;;;;;5028529;28;20029;-58
2022/06/28 07:48:51;;;;;;;7.00;2.80;;;;;;;;;;5018204;28;20042;-58
2022/06/28 07:54:02;;;;;;;9.10;3.13;;;;;;;;;;5024992;28;20080;-59
2022/06/28 07:56:28;;;;;;;7.53;2.95;;;;;;;;;;5014714;28;20044;-59
2022/06/28 07:58:53;;;;;;;5.97;2.53;;;;;;;;;;5016757;28;20034;-59
2022/06/28 08:01:19;;;;;;;14.20;3.10;;;;;;;;;;5002265;28;20048;-58
2022/06/28 08:03:45;;;;;;;8.68;3.00;;;;;;;;;;5013394;28;20026;-60
2022/06/28 08:06:10;;;;;;;6.47;2.80;;;;;;;;;;5027279;28;20049;-58
2022/06/28 08:08:36;;;;;;;8.35;2.90;;;;;;;;;;5031704;28;20064;-56
2022/06/28 08:11:01;;;;;;;7.90;2.70;;;;;;;;;;5021435;28;20029;-58
2022/06/28 08:13:27;;;;;;;5.78;2.38;;;;;;;;;;5027134;28;20450;-58
2022/06/28 08:15:53;;;;;;;9.23;2.85;;;;;;;;;;5030472;28;20432;-58
2022/06/28 08:18:18;;;;;;;5.60;2.47;;;;;;;;;;5013127;28;20036;-59
2022/06/28 08:20:44;;;;;;;8.32;2.85;;;;;;;;;;5030612;28;20029;-60
2022/06/28 08:23:09;;;;;;;7.90;2.72;;;;;;;;;;5029857;28;20047;-57
2022/06/28 08:25:36;;;;;;;8.00;2.92;;;;;;;;;;5030628;28;20044;-57
2022/06/28 08:28:01;;;;;;;7.03;3.05;;;;;;;;;;5024766;28;20041;-59
2022/06/28 08:30:27;;;;;;;8.07;3.08;;;;;;;;;;5030844;28;20037;-59
2022/06/28 08:32:54;;;;;;;9.60;3.20;;;;;;;;;;5025143;28;20104;-59
2022/06/28 08:35:20;;;;;;;9.63;3.22;;;;;;;;;;5029024;28;20041;-61
2022/06/28 08:37:46;;;;;;;7.38;2.95;;;;;;;;;;5011428;28;20038;-57
2022/06/28 08:40:11;;;;;;;10.30;3.15;;;;;;;;;;5026242;28;20476;-60
2022/06/28 08:42:39;;;;;;;7.10;3.38;;;;;;;;;;5012592;28;20494;-60
2022/06/28 08:45:05;;;;;;;10.30;3.28;;;;;;;;;;5030076;28;20069;-60
2022/06/28 08:47:33;;;;;;;8.10;2.92;;;;;;;;;;5014369;28;20057;-57
2022/06/28 08:50:06;;;;;;;9.63;2.90;;;;;;;;;;5025271;28;20086;-59
2022/06/28 08:52:35;;;;;;;4.68;2.70;;;;;;;;;;5031047;28;20492;-58
2022/06/28 08:55:01;;;;;;;7.65;2.30;;;;;;;;;;5027408;28;20045;-58
2022/06/28 08:57:30;;;;;;;6.00;2.90;;;;;;;;;;5028939;28;20033;-59
2022/06/28 08:59:57;;;;;;;6.70;2.67;;;;;;;;;;5030393;28;20086;-59
2022/06/28 09:02:22;;;;;;;6.63;2.30;;;;;;;;;;4999481;28;20449;-57
2022/06/28 09:04:53;;;;;;;9.80;2.60;;;;;;;;;;5012320;28;20101;-58
2022/06/28 09:07:22;;;;;;;;;;;;;;;;;;5026521;28;20627;-61
2022/06/28 09:09:47;;;;;;;9.10;2.35;;;;;;;;;;5011912;28;19909;-59
2022/06/28 09:12:13;;;;;;;6.35;2.72;;;;;;;;;;5025726;28;20494;-59
2022/06/28 09:14:39;;;;;;;4.40;2.15;;;;;;;;;;5014057;28;20462;-57
2022/06/28 09:17:22;;;;;;;6.22;2.50;;;;;;;;;;5027231;28;20038;-57
2022/06/28 09:19:48;;;;;;;5.05;2.50;;;;;;;;;;5026065;28;20477;-56
2022/06/28 09:22:33;;;;;;;6.60;2.55;;;;;;;;;;5025078;28;20048;-55
2022/06/28 09:24:59;;;;;;;5.65;1.92;;;;;;;;;;5017467;28;20497;-60
2022/06/28 09:27:37;;;;;;;6.22;1.80;;;;;;;;;;5013296;28;20422;-57
2022/06/28 09:30:08;;;;;;;7.47;2.00;;;;;;;;;;5006734;28;20061;-58
2022/06/28 09:32:36;;;;;;;6.18;1.88;;;;;;;;;;5016665;28;20075;-57
2022/06/28 09:35:04;;;;;;;5.10;1.75;;;;;;;;;;5027942;28;20437;-60
2022/06/28 09:37:42;;;;;;;4.15;1.80;;;;;;;;;;5034647;28;20033;-58
2022/06/28 09:40:36;;;;;;;5.32;2.00;;;;;;;;;;5028846;28;20040;-55
2022/06/28 09:43:09;;;;;;;7.32;2.10;;;;;;;;;;5024190;28;20470;-58
2022/06/28 09:45:49;;;;;;;4.78;1.85;;;;;;;;;;5020290;28;20065;-59
2022/06/28 09:48:17;;;;;;;3.72;1.90;;;;;;;;;;5031959;28;20037;-58
2022/06/28 09:50:42;;;;;;;5.75;2.10;;;;;;;;;;5033246;28;20469;-51
2022/06/28 09:53:08;;;;;;;7.47;1.90;;;;;;;;;;5034413;28;20045;-53
2022/06/28 09:55:34;;;;;;;5.03;2.40;;;;;;;;;;5033948;28;20063;-57
2022/06/28 09:58:00;;;;;;;6.22;2.13;;;;;;;;;;5033252;28;20347;-58
2022/06/28 10:00:27;;;;;;;4.10;1.98;;;;;;;;;;5034232;28;20025;-59
2022/06/28 10:02:57;;;;;;;3.47;1.80;;;;;;;;;;5034622;28;20416;-57
2022/06/28 10:05:23;;;;;;;6.03;2.10;;;;;;;;;;5034276;28;20033;-60
2022/06/28 10:07:48;;;;;;;7.45;2.60;;;;;;;;;;5016169;28;20042;-58
2022/06/28 10:10:14;;;;;;;5.43;2.15;;;;;;;;;;5014325;28;20099;-60
2022/06/28 10:15:27;;;;;;;6.05;2.28;;;;;;;;;;5029549;28;20079;-59
2022/06/28 10:18:00;;;;;;;6.63;2.40;;;;;;;;;;5034896;28;20108;-58
2022/06/28 10:20:34;;;;;;;5.93;2.10;;;;;;;;;;5033468;28;20036;-57
2022/06/28 10:23:36;;;;;;;6.20;2.42;;;;;;;;;;5033886;28;20116;-59
2022/06/28 10:26:30;;;;;;;7.80;2.63;;;;;;;;;;5033915;28;20032;-58
2022/06/28 10:29:11;;;;;;;5.70;2.22;;;;;;;;;;5019034;28;20048;-61
2022/06/28 10:31:41;;;;;;;4.70;2.20;;;;;;;;;;5031184;28;20355;-59
2022/06/28 10:34:11;;;;;;;3.63;1.90;;;;;;;;;;5032162;28;20037;-57
2022/06/28 10:36:57;;;;;;;7.68;2.28;;;;;;;;;;5030504;28;20049;-54
2022/06/28 10:39:29;;;;;;;4.20;2.15;;;;;;;;;;5032723;28;20034;-58
2022/06/28 10:42:06;;;;;;;5.88;2.22;;;;;;;;;;5033853;28;20113;-54
2022/06/28 10:44:32;;;;;;;7.60;2.10;;;;;;;;;;5030848;28;20041;-56
2022/06/28 10:47:00;;;;;;;9.80;2.10;;;;;;;;;;5031411;28;20029;-56
2022/06/28 10:49:27;;;;;;;4.65;2.00;;;;;;;;;;5032928;28;20053;-59
2022/06/28 10:52:16;;;;;;;5.93;2.30;;;;;;;;;;5019114;28;20033;-59
2022/06/28 10:55:04;;;;;;;5.47;1.80;;;;;;;;;;5028003;28;20409;-59
2022/06/28 10:57:34;;;;;;;2.78;1.88;;;;;;;;;;5004839;28;20058;-60
2022/06/28 11:00:07;;;;;;;5.05;1.70;;;;;;;;;;5014590;28;20041;-60
2022/06/28 11:02:51;;;;;;;7.03;1.98;;;;;;;;;;5032049;28;20047;-58
2022/06/28 11:05:21;;;;;;;3.47;1.60;;;;;;;;;;5031008;28;20532;-58
2022/06/28 11:08:01;;;;;;;4.25;1.70;;;;;;;;;;5030396;28;20394;-57
2022/06/28 11:10:27;;;;;;;4.28;1.80;;;;;;;;;;5029894;28;20490;-57
2022/06/28 11:12:53;;;;;;;3.35;1.65;;;;;;;;;;5032290;28;20033;-57
2022/06/28 11:15:27;;;;;;;4.00;1.65;;;;;;;;;;5032965;28;20068;-56
2022/06/28 11:17:53;;;;;;;3.25;1.70;;;;;;;;;;5025640;28;20026;-58
2022/06/28 11:20:24;;;;;;;4.32;1.77;;;;;;;;;;5012830;28;20101;-56
2022/06/28 11:22:51;;;;;;;4.57;1.60;;;;;;;;;;5014402;28;20087;-54
2022/06/28 11:25:18;;;;;;;4.22;1.58;;;;;;;;;;5012828;28;20046;-57
2022/06/28 11:27:51;;;;;;;7.07;1.70;;;;;;;;;;5019270;28;20029;-59
2022/06/28 11:30:17;;;;;;;3.10;1.40;;;;;;;;;;5031698;28;20037;-58
2022/06/28 11:32:47;;;;;;;5.25;1.90;;;;;;;;;;5032571;28;20033;-58
2022/06/28 11:35:18;;;;;;;6.20;1.75;;;;;;;;;;5030463;28;20041;-58
2022/06/28 11:37:48;;;;;;;6.53;1.60;;;;;;;;;;5030533;28;20072;-59
2022/06/28 11:40:15;;;;;;;5.03;1.75;;;;;;;;;;5029240;28;21728;-59
2022/06/28 11:42:41;;;;;;;6.43;1.60;;;;;;;;;;5018760;28;20124;-59
2022/06/28 11:45:09;;;;;;;6.60;1.58;;;;;;;;;;5030734;28;20040;-58
2022/06/28 11:47:35;;;;;;;4.35;1.40;;;;;;;;;;5030266;28;20033;-58
2022/06/28 11:50:11;;;;;;;6.68;1.83;;;;;;;;;;5027269;28;20079;-60
2022/06/28 11:52:46;;;;;;;3.75;1.55;;;;;;;;;;5029226;28;20055;-59
2022/06/28 11:55:11;;;;;;;6.22;1.70;;;;;;;;;;5018175;28;20042;-59
2022/06/28 11:57:39;;;;;;;5.55;1.58;;;;;;;;;;5031491;28;20083;-57
2022/06/28 12:00:07;;;;;;;5.38;1.60;;;;;;;;;;5030249;28;20022;-59
2022/06/28 12:02:46;;;;;;;4.53;1.40;;;;;;;;;;5032412;28;20046;-60
2022/06/28 12:05:12;;;;;;;3.63;1.67;;;;;;;;;;5012407;28;20487;-59
2022/06/28 12:07:43;;;;;;;2.08;1.70;;;;;;;;;;5013692;28;20449;-59
2022/06/28 12:10:23;;;;;;;6.18;1.60;;;;;;;;;;5011893;28;20146;-59
2022/06/28 12:12:49;;;;;;;5.00;1.45;;;;;;;;;;5032660;28;20025;-59
2022/06/28 12:15:15;;;;;;;2.75;1.60;;;;;;;;;;5030413;28;20072;-61
2022/06/28 12:17:48;;;;;;;4.35;1.63;;;;;;;;;;5013452;28;20493;-59
2022/06/28 12:20:16;;;;;;;3.47;1.50;;;;;;;;;;5010187;28;20041;-59
2022/06/28 12:22:42;;;;;;;6.32;1.83;;;;;;;;;;5024489;28;20048;-60
2022/06/28 12:25:12;;;;;;;3.33;1.58;;;;;;;;;;5030705;28;20029;-59
2022/06/28 12:27:38;;;;;;;3.20;1.60;;;;;;;;;;4995131;28;20115;-60
2022/06/28 12:30:06;;;;;;;3.78;1.50;;;;;;;;;;5013591;28;20037;-58
2022/06/28 12:32:32;;;;;;;3.50;1.60;;;;;;;;;;5012446;28;20038;-59
2022/06/28 12:35:00;;;;;;;3.65;1.40;;;;;;;;;;5028320;28;20032;-61
2022/06/28 12:37:25;;;;;;;3.20;1.60;;;;;;;;;;5031998;28;20033;-59
2022/06/28 12:39:51;;;;;;;2.83;1.50;;;;;;;;;;5027977;28;20095;-60
2022/06/28 12:42:17;;;;;;;3.80;1.40;;;;;;;;;;5030434;28;20029;-60
2022/06/28 12:44:43;;;;;;;5.65;1.50;;;;;;;;;;5032232;28;20116;-59
2022/06/28 12:47:09;;;;;;;4.03;1.58;;;;;;;;;;5030357;28;20069;-60
2022/06/28 12:49:35;;;;;;;3.83;1.10;;;;;;;;;;5031963;28;20026;-61
2022/06/28 12:52:00;;;;;;;4.55;1.30;;;;;;;;;;5027219;28;20033;-61
2022/06/28 12:54:26;;;;;;;4.68;1.50;;;;;;;;;;5028411;28;20417;-61
2022/06/28 12:56:51;;;;;;;4.28;1.63;;;;;;;;;;5031612;28;20038;-61
2022/06/28 12:59:16;;;;;;;2.33;1.50;;;;;;;;;;5030056;28;20013;-60
2022/06/28 13:01:42;;;;;;;4.93;1.50;;;;;;;;;;5030458;28;20033;-61
2022/06/28 13:04:08;;;;;;;2.92;1.50;;;;;;;;;;5027815;28;20033;-61
2022/06/28 13:06:35;;;;;;;3.95;1.52;;;;;;;;;;5021018;28;20478;-61
2022/06/28 13:09:00;;;;;;;2.03;1.27;;;;;;;;;;4993294;28;20033;-61
2022/06/28 13:11:26;;;;;;;4.25;1.83;;;;;;;;;;5031406;28;20033;-60
2022/06/28 13:13:52;;;;;;;3.28;1.50;;;;;;;;;;5030865;28;20096;-61
2022/06/28 13:16:18;;;;;;;3.47;1.45;;;;;;;;;;5027152;28;20290;-61
2022/06/28 13:18:44;;;;;;;3.28;1.45;;;;;;;;;;5022728;28;20038;-60
2022/06/28 13:21:11;;;;;;;2.33;1.38;;;;;;;;;;5010875;28;20463;-61
2022/06/28 13:23:37;;;;;;;4.30;1.40;;;;;;;;;;5023677;28;20040;-60
2022/06/28 13:26:03;;;;;;;2.92;1.50;;;;;;;;;;5013070;28;20120;-61
2022/06/28 13:28:30;;;;;;;5.20;1.30;;;;;;;;;;5029939;28;20105;-61
2022/06/28 13:30:55;;;;;;;3.22;1.40;;;;;;;;;;5010428;28;20124;-61
2022/06/28 13:33:20;;;;;;;3.88;1.48;;;;;;;;;;5013617;28;20116;-60
2022/06/28 13:35:48;;;;;;;3.92;1.42;;;;;;;;;;5030157;28;20040;-61
2022/06/28 13:38:14;;;;;;;3.22;1.40;;;;;;;;;;5029773;28;20025;-61
2022/06/28 13:40:40;;;;;;;4.35;1.63;;;;;;;;;;5031200;28;20084;-61
2022/06/28 13:45:49;;;;;;;3.22;1.50;;;;;;;;;;5011891;28;20049;-63
2022/06/28 13:48:15;;;;;;;4.30;1.42;;;;;;;;;;5011431;28;20037;-62
2022/06/28 13:50:40;;;;;;;2.60;1.33;;;;;;;;;;5011315;28;20049;-61
2022/06/28 13:53:06;;;;;;;4.32;1.50;;;;;;;;;;5012257;28;20529;-61
2022/06/28 13:55:31;;;;;;;4.63;1.40;;;;;;;;;;5013474;28;20132;-60
2022/06/28 13:57:56;;;;;;;4.35;1.38;;;;;;;;;;5030247;28;20025;-61
2022/06/28 14:00:22;;;;;;;3.45;1.50;;;;;;;;;;5028096;28;20034;-60
2022/06/28 14:02:47;;;;;;;2.85;1.40;;;;;;;;;;5009319;28;20033;-61
2022/06/28 14:05:13;;;;;;;3.03;1.45;;;;;;;;;;5029649;28;20037;-61
2022/06/28 14:07:42;;;;;;;4.53;1.20;;;;;;;;;;5029499;28;20463;-59
2022/06/28 14:10:08;;;;;;;1.52;1.08;;;;;;;;;;5028256;28;20037;-60
2022/06/28 14:12:33;;;;;;;3.33;1.30;;;;;;;;;;5031124;28;20453;-60
2022/06/28 14:14:59;;;;;;;3.13;1.33;;;;;;;;;;5009516;28;20121;-62
2022/06/28 14:17:24;;;;;;;5.13;1.45;;;;;;;;;;5030511;28;20038;-61
2022/06/28 14:19:50;;;;;;;5.65;1.20;;;;;;;;;;5024498;28;20524;-61
2022/06/28 14:22:15;;;;;;;3.47;1.27;;;;;;;;;;5030515;28;20144;-61
2022/06/28 14:24:40;;;;;;;2.90;1.40;;;;;;;;;;5030906;28;20044;-61
2022/06/28 14:27:06;;;;;;;2.65;1.50;;;;;;;;;;5032587;28;20124;-60
2022/06/28 14:29:33;;;;;;;3.35;1.30;;;;;;;;;;5003103;28;20033;-59
2022/06/28 14:31:59;;;;;;;5.75;1.52;;;;;;;;;;5015409;28;20076;-59
2022/06/28 14:34:24;;;;;;;3.30;1.40;;;;;;;;;;5032243;28;20041;-62
2022/06/28 14:36:50;;;;;;;3.45;1.40;;;;;;;;;;5028324;28;20422;-62
2022/06/28 14:39:16;;;;;;;4.55;1.50;;;;;;;;;;5019964;28;20028;-60
2022/06/28 14:41:42;;;;;;;2.22;1.20;;;;;;;;;;5027204;28;20477;-59
2022/06/28 14:44:08;;;;;;;5.38;1.30;;;;;;;;;;5017699;28;20029;-60
2022/06/28 14:46:33;;;;;;;5.60;1.30;;;;;;;;;;5027264;28;20478;-60
2022/06/28 14:48:59;;;;;;;2.95;1.30;;;;;;;;;;5022423;28;20151;-60
2022/06/28 14:51:24;;;;;;;3.75;1.30;;;;;;;;;;5030321;28;20134;-59